Time;durP1;ratioP1;P1;durP2;ratioP2;P2;SDS_P1;SDS_P2;PMS_P1;PMS_P2;Temp;Humidity;BMP_temperature;BMP_pressure;BME280_temperature;BME280_humidity;BME280_pressure;Samples;Min_cycle;Max_cycle;Signal;HPM_P1;HPM_P2
2023/12/07 00:04:30;;;;;;;0.70;0.40;;;;;;;;;;6260011;22;20031;-82
2023/12/07 00:07:02;;;;;;;2.17;0.85;;;;;;;;;;6264305;22;20004;-82
2023/12/07 00:09:53;;;;;;;0.98;0.40;;;;;;;;;;6265670;22;20308;-82
2023/12/07 00:12:27;;;;;;;3.38;1.23;;;;;;;;;;6265954;22;20022;-82
2023/12/07 00:14:58;;;;;;;4.18;0.82;;;;;;;;;;6293518;22;20027;-82
2023/12/07 00:17:35;;;;;;;8.30;1.38;;;;;;;;;;6256689;22;20031;-82
2023/12/07 00:20:27;;;;;;;6.30;1.58;;;;;;;;;;6256158;23;20023;-82
2023/12/07 00:23:04;;;;;;;2.42;0.93;;;;;;;;;;6230944;23;20008;-82
2023/12/07 00:25:45;;;;;;;1.23;0.63;;;;;;;;;;6225125;23;20028;-82
2023/12/07 00:28:23;;;;;;;2.47;1.25;;;;;;;;;;6200272;23;20008;-82
2023/12/07 00:30:55;;;;;;;5.40;1.60;;;;;;;;;;6164652;23;20017;-82
2023/12/07 00:33:39;;;;;;;;;;;;;;;;;;;;;
2023/12/07 00:48:36;;;;;;;1.85;0.88;;;;;;;;;;6166632;23;20065;-83
2023/12/07 00:53:46;;;;;;;2.85;0.75;;;;;;;;;;6161613;23;20033;-83
2023/12/07 00:56:18;;;;;;;2.45;0.60;;;;;;;;;;6160715;23;20363;-84
2023/12/07 00:58:57;;;;;;;;;;;;;;;;;;;;;
2023/12/07 01:01:36;;;;;;;10.25;2.92;;;;;;;;;;6287625;22;20423;-84
2023/12/07 01:04:21;;;;;;;;;;;;;;;;;;6260708;22;20016;-83
2023/12/07 01:06:47;;;;;;;9.63;1.00;;;;;;;;;;6258764;22;19927;-83
2023/12/07 01:09:21;;;;;;;7.82;2.08;;;;;;;;;;6293232;22;20005;-83
2023/12/07 01:11:58;;;;;;;4.70;1.75;;;;;;;;;;6257539;23;20017;-84
2023/12/07 01:14:32;;;;;;;5.50;1.30;;;;;;;;;;6252532;23;20063;-84
2023/12/07 01:17:07;;;;;;;8.05;1.58;;;;;;;;;;6252867;23;20008;-83
2023/12/07 01:19:38;;;;;;;14.20;2.55;;;;;;;;;;6257824;23;20392;-84
2023/12/07 01:22:05;;;;;;;11.23;4.68;;;;;;;;;;6257432;23;20012;-83
2023/12/07 01:24:39;;;;;;;1.77;0.80;;;;;;;;;;6258187;23;20012;-83
2023/12/07 01:27:05;;;;;;;4.50;1.40;;;;;;;;;;6258495;23;20855;-83
2023/12/07 01:30:15;;;;;;;;;;;;;;;;;;;;;
2023/12/07 01:32:56;;;;;;;3.17;1.65;;;;;;;;;;6264145;23;20008;-83
2023/12/07 01:35:59;;;;;;;2.10;1.05;;;;;;;;;;6263543;23;20036;-83
2023/12/07 01:44:32;;;;;;;0.47;0.35;;;;;;;;;;6294200;22;20014;-83
2023/12/07 01:46:58;;;;;;;1.30;0.35;;;;;;;;;;6266513;22;20008;-83
2023/12/07 01:49:25;;;;;;;2.55;0.70;;;;;;;;;;6265449;22;20000;-83
2023/12/07 01:51:51;;;;;;;1.83;0.65;;;;;;;;;;6287122;22;20008;-83
2023/12/07 01:54:17;;;;;;;0.80;0.45;;;;;;;;;;6257887;22;20004;-83
2023/12/07 01:56:43;;;;;;;1.52;0.68;;;;;;;;;;6265849;22;20016;-83
2023/12/07 01:59:10;;;;;;;0.40;0.22;;;;;;;;;;6263912;22;20030;-82
2023/12/07 02:01:36;;;;;;;1.08;0.98;;;;;;;;;;6264550;22;20090;-83
2023/12/07 02:04:04;;;;;;;1.70;0.65;;;;;;;;;;6264933;22;20018;-83
2023/12/07 02:06:30;;;;;;;10.15;0.63;;;;;;;;;;6265693;22;20038;-83
2023/12/07 02:08:59;;;;;;;;;;;;;;;;;;6261476;22;20003;-83
2023/12/07 02:11:25;;;;;;;6.72;1.20;;;;;;;;;;6258121;22;19954;-83
2023/12/07 02:13:55;;;;;;;0.43;0.30;;;;;;;;;;6256163;22;20034;-83
2023/12/07 02:16:30;;;;;;;4.40;0.98;;;;;;;;;;6254876;22;20312;-83
2023/12/07 02:19:03;;;;;;;2.80;1.10;;;;;;;;;;6253345;22;20008;-83
2023/12/07 02:21:38;;;;;;;3.38;1.10;;;;;;;;;;6254685;22;20507;-83
2023/12/07 02:24:19;;;;;;;0.88;0.57;;;;;;;;;;6254141;22;20007;-83
2023/12/07 02:26:48;;;;;;;0.77;0.50;;;;;;;;;;6258576;22;20079;-83
2023/12/07 02:29:30;;;;;;;3.13;0.43;;;;;;;;;;6267331;22;20000;-84
2023/12/07 02:31:56;;;;;;;2.50;0.50;;;;;;;;;;6259164;22;20023;-81
2023/12/07 02:34:22;;;;;;;;;;;;;;;;;;6261095;23;19985;-83
2023/12/07 02:36:53;;;;;;;0.73;0.40;;;;;;;;;;6264235;23;19904;-83
2023/12/07 02:39:20;;;;;;;1.45;0.50;;;;;;;;;;6263651;23;20000;-82
2023/12/07 02:41:47;;;;;;;1.83;0.40;;;;;;;;;;6254603;23;20486;-83
2023/12/07 02:44:13;;;;;;;0.52;0.35;;;;;;;;;;6253586;23;20008;-82
2023/12/07 02:57:23;;;;;;;1.63;0.47;;;;;;;;;;6132338;23;20879;-81
2023/12/07 02:59:49;;;;;;;0.70;0.30;;;;;;;;;;6226760;23;20024;-81
2023/12/07 03:02:15;;;;;;;1.55;0.43;;;;;;;;;;6227228;23;20020;-83
2023/12/07 03:04:44;;;;;;;2.58;0.73;;;;;;;;;;6252216;23;20476;-83
2023/12/07 03:07:12;;;;;;;2.57;1.00;;;;;;;;;;6249962;23;20377;-83
2023/12/07 03:09:46;;;;;;;0.80;0.40;;;;;;;;;;6225466;23;20027;-84
2023/12/07 03:12:12;;;;;;;0.65;0.45;;;;;;;;;;6251830;23;20001;-84
2023/12/07 03:14:38;;;;;;;2.97;0.85;;;;;;;;;;6226577;23;20336;-83
2023/12/07 03:17:04;;;;;;;1.30;0.73;;;;;;;;;;6258204;23;20000;-84
2023/12/07 03:19:30;;;;;;;2.50;0.97;;;;;;;;;;6256054;23;20398;-84
2023/12/07 03:21:56;;;;;;;;;;;;;;;;;;6229251;23;20227;-84
2023/12/07 03:24:25;;;;;;;1.02;0.38;;;;;;;;;;6253875;23;19914;-84
2023/12/07 03:27:02;;;;;;;0.43;0.30;;;;;;;;;;6230793;23;20045;-84
2023/12/07 03:29:46;;;;;;;2.67;0.38;;;;;;;;;;6227264;23;20035;-84
2023/12/07 03:32:17;;;;;;;0.13;0.08;;;;;;;;;;6229114;23;20089;-84
2023/12/07 03:34:43;;;;;;;0.57;0.57;;;;;;;;;;6225380;23;20092;-84
2023/12/07 03:37:18;;;;;;;4.57;0.20;;;;;;;;;;6227158;23;20088;-84
2023/12/07 03:39:44;;;;;;;2.92;1.00;;;;;;;;;;6251499;23;20023;-84
2023/12/07 03:42:13;;;;;;;6.82;0.38;;;;;;;;;;6228666;23;20087;-81
2023/12/07 03:44:39;;;;;;;0.40;0.25;;;;;;;;;;6227723;23;20051;-81
2023/12/07 03:47:05;;;;;;;0.85;0.28;;;;;;;;;;6227760;23;20004;-81
2023/12/07 03:49:44;;;;;;;;;;;;;;;;;;;;;
2023/12/07 03:52:13;;;;;;;0.30;0.20;;;;;;;;;;6257287;23;20000;-84
2023/12/07 03:54:46;;;;;;;4.05;1.45;;;;;;;;;;6227895;23;20035;-84
2023/12/07 03:57:12;;;;;;;10.95;3.88;;;;;;;;;;6230024;23;20083;-83
2023/12/07 03:59:46;;;;;;;3.58;1.42;;;;;;;;;;6231409;23;20034;-83
2023/12/07 04:02:12;;;;;;;1.27;0.85;;;;;;;;;;6231899;23;20015;-83
2023/12/07 04:04:42;;;;;;;9.63;2.70;;;;;;;;;;6232702;23;20004;-83
2023/12/07 04:07:15;;;;;;;10.70;3.45;;;;;;;;;;6230675;23;20031;-83
2023/12/07 04:09:47;;;;;;;2.60;1.13;;;;;;;;;;6228789;23;20008;-84
2023/12/07 04:15:08;;;;;;;7.03;1.33;;;;;;;;;;6223922;23;20338;-81
2023/12/07 04:21:13;;;;;;;0.25;0.20;;;;;;;;;;6216547;23;20040;-84
2023/12/07 04:23:42;;;;;;;3.47;0.52;;;;;;;;;;6272671;22;20020;-84
2023/12/07 04:26:28;;;;;;;0.80;0.47;;;;;;;;;;6256140;22;20018;-84
2023/12/07 04:28:54;;;;;;;1.25;0.70;;;;;;;;;;6256852;22;20027;-84
2023/12/07 04:31:39;;;;;;;2.15;0.70;;;;;;;;;;6259452;22;20407;-84
2023/12/07 04:34:31;;;;;;;1.13;0.20;;;;;;;;;;6255014;23;20008;-84
2023/12/07 04:37:12;;;;;;;1.07;0.63;;;;;;;;;;6130097;23;20021;-84
2023/12/07 04:39:45;;;;;;;0.35;0.20;;;;;;;;;;6217401;23;20248;-83
2023/12/07 04:42:17;;;;;;;0.28;0.10;;;;;;;;;;6195283;23;20018;-84
2023/12/07 04:45:09;;;;;;;6.30;1.45;;;;;;;;;;6193848;23;20016;-83
2023/12/07 04:47:38;;;;;;;1.40;0.40;;;;;;;;;;6193371;23;20511;-84
2023/12/07 04:50:06;;;;;;;1.80;0.75;;;;;;;;;;6195388;23;20012;-83
2023/12/07 04:52:41;;;;;;;0.30;0.10;;;;;;;;;;6194137;23;20036;-83
2023/12/07 04:55:08;;;;;;;3.33;0.25;;;;;;;;;;6193588;23;20066;-83
2023/12/07 04:57:37;;;;;;;1.13;0.52;;;;;;;;;;6193500;23;20392;-83
2023/12/07 05:00:13;;;;;;;0.10;0.10;;;;;;;;;;6222672;23;20039;-83
2023/12/07 05:02:39;;;;;;;0.73;0.40;;;;;;;;;;6249828;23;20074;-84
2023/12/07 05:05:05;;;;;;;0.00;0.00;;;;;;;;;;6222884;23;20027;-83
2023/12/07 05:07:34;;;;;;;;;;;;;;;;;;6234285;22;20039;-83
2023/12/07 05:10:00;;;;;;;1.48;0.38;;;;;;;;;;6254433;22;19903;-84
2023/12/07 05:12:30;;;;;;;4.82;1.60;;;;;;;;;;6281717;22;20418;-84
2023/12/07 05:15:11;;;;;;;0.85;0.10;;;;;;;;;;6254100;22;20030;-84
2023/12/07 05:17:56;;;;;;;0.25;0.20;;;;;;;;;;6250431;22;20039;-84
2023/12/07 05:20:27;;;;;;;0.20;0.13;;;;;;;;;;6275799;22;20008;-84
2023/12/07 05:22:57;;;;;;;3.10;1.17;;;;;;;;;;6245422;22;20035;-84
2023/12/07 05:25:26;;;;;;;1.10;0.30;;;;;;;;;;6245127;23;20087;-83
2023/12/07 05:27:58;;;;;;;0.10;0.10;;;;;;;;;;6243769;23;20016;-84
2023/12/07 05:30:24;;;;;;;;;;;;;;;;;;6245479;23;20032;-84
2023/12/07 05:32:55;;;;;;;0.05;0.05;;;;;;;;;;6243358;23;19955;-84
2023/12/07 05:35:27;;;;;;;1.63;0.20;;;;;;;;;;6243514;23;20008;-84
2023/12/07 05:38:07;;;;;;;0.00;0.00;;;;;;;;;;6244079;23;20343;-84
2023/12/07 05:41:11;;;;;;;0.45;0.10;;;;;;;;;;6244383;23;20021;-84
2023/12/07 05:43:35;;;;;;;2.88;0.60;;;;;;;;;;6246139;22;20011;-83
2023/12/07 05:46:10;;;;;;;3.40;0.70;;;;;;;;;;6249058;23;20013;-84
2023/12/07 05:48:49;;;;;;;3.25;1.25;;;;;;;;;;6247219;23;20005;-84
2023/12/07 05:51:46;;;;;;;0.32;0.20;;;;;;;;;;6248782;23;20019;-84
2023/12/07 05:54:46;;;;;;;1.00;0.25;;;;;;;;;;6244209;22;20503;-83
2023/12/07 05:57:19;;;;;;;;;;;;;;;;;;6245992;22;20340;-84
2023/12/07 06:09:15;;;;;;;;;;;;;;;;;;;;;
2023/12/07 06:11:51;;;;;;;0.35;0.30;;;;;;;;;;6258702;23;19939;-83
2023/12/07 06:14:17;;;;;;;0.10;0.10;;;;;;;;;;6249499;22;20015;-82
2023/12/07 06:16:48;;;;;;;0.20;0.20;;;;;;;;;;6221494;23;20051;-81
2023/12/07 06:19:14;;;;;;;3.30;1.35;;;;;;;;;;6223296;23;20004;-81
2023/12/07 06:21:44;;;;;;;3.95;1.13;;;;;;;;;;6217091;23;20046;-82
2023/12/07 06:24:10;;;;;;;2.40;1.88;;;;;;;;;;6214837;23;20005;-83
2023/12/07 06:26:36;;;;;;;0.68;0.52;;;;;;;;;;6211785;23;20016;-81
2023/12/07 06:29:02;;;;;;;0.88;0.20;;;;;;;;;;6210245;23;20013;-81
2023/12/07 06:31:28;;;;;;;0.15;0.13;;;;;;;;;;6209928;23;20000;-80
2023/12/07 06:33:54;;;;;;;1.35;0.65;;;;;;;;;;6211631;23;20070;-81
2023/12/07 06:36:25;;;;;;;1.02;0.85;;;;;;;;;;6209162;23;20022;-80
2023/12/07 06:38:51;;;;;;;0.52;0.20;;;;;;;;;;6208679;23;20575;-80
2023/12/07 06:41:18;;;;;;;2.10;0.47;;;;;;;;;;6213831;23;20043;-81
2023/12/07 06:43:44;;;;;;;2.42;0.60;;;;;;;;;;6218918;23;20100;-82
2023/12/07 06:46:14;;;;;;;3.40;1.40;;;;;;;;;;6222869;23;20039;-82
2023/12/07 06:48:40;;;;;;;1.60;1.48;;;;;;;;;;6223105;23;20043;-81
2023/12/07 06:51:06;;;;;;;3.83;1.38;;;;;;;;;;6221548;23;20009;-82
2023/12/07 06:53:32;;;;;;;8.40;2.13;;;;;;;;;;6220965;23;20405;-82
2023/12/07 06:55:58;;;;;;;7.25;1.90;;;;;;;;;;6220523;23;20000;-83
2023/12/07 06:58:25;;;;;;;11.25;1.63;;;;;;;;;;6223675;23;20021;-82
2023/12/07 07:00:51;;;;;;;0.30;0.22;;;;;;;;;;6232321;23;20007;-81
2023/12/07 07:03:17;;;;;;;0.50;0.30;;;;;;;;;;6226139;23;20336;-81
2023/12/07 07:05:43;;;;;;;1.05;0.40;;;;;;;;;;6225758;23;20455;-81
2023/12/07 07:08:09;;;;;;;1.33;0.40;;;;;;;;;;6225385;23;20013;-81
2023/12/07 07:10:36;;;;;;;0.60;0.13;;;;;;;;;;6225746;23;20020;-81
2023/12/07 07:13:05;;;;;;;1.27;0.45;;;;;;;;;;6226405;23;20005;-81
2023/12/07 07:15:31;;;;;;;0.98;0.57;;;;;;;;;;6225892;23;19996;-82
2023/12/07 07:17:57;;;;;;;2.25;1.00;;;;;;;;;;6256275;23;20072;-82
2023/12/07 07:20:23;;;;;;;2.80;1.30;;;;;;;;;;6253627;23;20000;-82
2023/12/07 07:22:49;;;;;;;5.30;1.83;;;;;;;;;;6253567;23;20474;-82
2023/12/07 07:25:16;;;;;;;6.18;2.25;;;;;;;;;;6225172;23;20008;-82
2023/12/07 07:27:42;;;;;;;3.35;2.22;;;;;;;;;;6227901;23;20301;-82
2023/12/07 07:30:08;;;;;;;5.90;2.25;;;;;;;;;;6255740;23;19996;-82
2023/12/07 07:32:35;;;;;;;8.00;1.60;;;;;;;;;;6229679;23;20012;-82
2023/12/07 07:35:01;;;;;;;4.60;1.83;;;;;;;;;;6259658;23;20071;-82
2023/12/07 07:37:27;;;;;;;14.43;5.68;;;;;;;;;;6258890;23;20419;-82
2023/12/07 07:39:53;;;;;;;;;;;;;;;;;;6255301;23;20004;-82
2023/12/07 07:42:19;;;;;;;9.77;3.67;;;;;;;;;;6252836;23;19990;-82
2023/12/07 07:44:45;;;;;;;4.93;1.70;;;;;;;;;;6228863;23;20375;-82
2023/12/07 07:47:11;;;;;;;0.60;0.55;;;;;;;;;;6255152;23;20000;-82
2023/12/07 07:49:37;;;;;;;0.65;0.30;;;;;;;;;;6227012;23;20005;-81
2023/12/07 07:52:04;;;;;;;0.10;0.00;;;;;;;;;;6252277;23;20408;-82
2023/12/07 07:54:31;;;;;;;0.00;0.00;;;;;;;;;;6228001;23;20005;-82
2023/12/07 07:56:57;;;;;;;2.65;1.33;;;;;;;;;;6254487;23;20004;-81
2023/12/07 07:59:23;;;;;;;8.38;1.98;;;;;;;;;;6256745;23;20056;-81
2023/12/07 08:01:49;;;;;;;4.20;1.25;;;;;;;;;;6228961;23;20020;-82
2023/12/07 08:04:16;;;;;;;0.47;0.22;;;;;;;;;;6258626;23;20012;-82
2023/12/07 08:06:45;;;;;;;0.73;0.40;;;;;;;;;;6231746;23;20504;-82
2023/12/07 08:09:28;;;;;;;2.28;0.32;;;;;;;;;;5089263;27;20387;-81
2023/12/07 08:11:54;;;;;;;0.13;0.10;;;;;;;;;;5056494;28;20595;-81
2023/12/07 08:14:20;;;;;;;0.35;0.20;;;;;;;;;;5058716;28;20033;-80
2023/12/07 08:16:46;;;;;;;0.57;0.28;;;;;;;;;;5077818;28;20018;-80
2023/12/07 08:19:13;;;;;;;0.25;0.22;;;;;;;;;;5062229;28;20053;-80
2023/12/07 08:21:39;;;;;;;0.63;0.30;;;;;;;;;;5051327;28;20017;-80
2023/12/07 08:24:05;;;;;;;0.95;0.35;;;;;;;;;;5064922;28;20048;-80
2023/12/07 08:26:31;;;;;;;0.10;0.00;;;;;;;;;;5062481;28;20066;-80
2023/12/07 08:28:57;;;;;;;1.05;0.05;;;;;;;;;;5062128;28;20033;-80
2023/12/07 08:31:24;;;;;;;0.13;0.08;;;;;;;;;;5059724;28;20052;-80
2023/12/07 08:33:50;;;;;;;0.60;0.10;;;;;;;;;;5064736;28;20041;-80
2023/12/07 08:36:16;;;;;;;0.22;0.10;;;;;;;;;;5060644;28;20021;-80
2023/12/07 08:38:42;;;;;;;;;;;;;;;;;;5064427;28;20037;-80
2023/12/07 08:41:08;;;;;;;1.23;0.75;;;;;;;;;;5076330;28;19940;-80
2023/12/07 08:43:34;;;;;;;0.35;0.10;;;;;;;;;;5071987;28;20501;-80
2023/12/07 08:46:00;;;;;;;1.30;0.60;;;;;;;;;;5069807;28;20077;-80
2023/12/07 08:48:26;;;;;;;0.00;0.00;;;;;;;;;;5072491;28;20055;-80
2023/12/07 08:50:52;;;;;;;1.35;0.82;;;;;;;;;;5071722;28;20024;-80
2023/12/07 08:53:18;;;;;;;1.58;0.45;;;;;;;;;;5051734;28;20029;-80
2023/12/07 08:55:44;;;;;;;3.28;0.52;;;;;;;;;;5055512;28;20471;-80
2023/12/07 08:58:10;;;;;;;2.35;0.40;;;;;;;;;;5060364;28;20029;-80
2023/12/07 09:00:38;;;;;;;2.50;1.58;;;;;;;;;;5065189;28;20029;-80
2023/12/07 09:03:04;;;;;;;0.15;0.03;;;;;;;;;;5082892;28;20489;-80
2023/12/07 09:05:30;;;;;;;0.70;0.30;;;;;;;;;;5060532;28;20075;-80
2023/12/07 09:07:57;;;;;;;1.55;0.55;;;;;;;;;;5060895;28;20046;-79
2023/12/07 09:10:23;;;;;;;1.75;0.85;;;;;;;;;;5065695;28;20029;-80
2023/12/07 09:12:49;;;;;;;1.17;0.40;;;;;;;;;;5069023;28;20040;-80
2023/12/07 09:15:15;;;;;;;2.22;0.90;;;;;;;;;;5071561;28;20033;-80
2023/12/07 09:17:41;;;;;;;1.55;0.40;;;;;;;;;;5071372;28;20036;-81
2023/12/07 09:20:17;;;;;;;1.85;0.25;;;;;;;;;;5045068;28;20032;-81
2023/12/07 09:22:46;;;;;;;1.20;0.63;;;;;;;;;;5041467;28;20037;-81
2023/12/07 09:25:13;;;;;;;2.15;1.13;;;;;;;;;;5043530;28;20100;-80
2023/12/07 09:27:39;;;;;;;1.00;0.25;;;;;;;;;;5044025;28;20040;-80
2023/12/07 09:30:07;;;;;;;2.78;1.42;;;;;;;;;;5066378;28;20028;-80
2023/12/07 09:32:38;;;;;;;2.08;1.35;;;;;;;;;;5065213;28;20096;-80
2023/12/07 09:35:07;;;;;;;1.27;0.55;;;;;;;;;;5070173;28;20017;-80
2023/12/07 09:37:33;;;;;;;6.05;1.40;;;;;;;;;;5052808;28;20041;-81
2023/12/07 09:39:59;;;;;;;3.55;2.08;;;;;;;;;;5071007;28;20032;-80
2023/12/07 09:42:25;;;;;;;1.02;0.50;;;;;;;;;;5068035;28;20041;-80
2023/12/07 09:44:51;;;;;;;0.30;0.20;;;;;;;;;;5065095;28;20025;-80
2023/12/07 09:47:18;;;;;;;2.55;1.15;;;;;;;;;;5063905;28;20064;-81
2023/12/07 09:49:44;;;;;;;2.20;0.88;;;;;;;;;;5059378;28;20021;-81
2023/12/07 09:52:11;;;;;;;5.43;2.25;;;;;;;;;;5052279;28;20485;-81
2023/12/07 09:54:41;;;;;;;2.47;1.23;;;;;;;;;;5047085;28;20036;-80
2023/12/07 09:57:09;;;;;;;5.75;1.20;;;;;;;;;;5062655;28;20021;-80
2023/12/07 09:59:36;;;;;;;1.83;0.70;;;;;;;;;;5054527;28;20013;-81
2023/12/07 10:02:02;;;;;;;2.35;1.63;;;;;;;;;;5065092;28;20029;-81
2023/12/07 10:04:28;;;;;;;3.85;1.88;;;;;;;;;;5061146;28;20054;-81
2023/12/07 10:06:54;;;;;;;6.20;1.48;;;;;;;;;;5056900;28;20032;-81
2023/12/07 10:09:23;;;;;;;2.40;1.70;;;;;;;;;;5047001;28;20095;-81
2023/12/07 10:11:49;;;;;;;4.00;1.67;;;;;;;;;;5061391;28;20040;-81
2023/12/07 10:14:16;;;;;;;1.35;0.80;;;;;;;;;;5042346;28;20029;-82
2023/12/07 10:16:57;;;;;;;3.70;0.75;;;;;;;;;;5052069;28;20360;-82
2023/12/07 10:19:24;;;;;;;4.70;1.00;;;;;;;;;;5050812;28;20025;-82
2023/12/07 10:21:50;;;;;;;2.17;0.50;;;;;;;;;;5056385;28;20025;-82
2023/12/07 10:24:17;;;;;;;2.42;0.52;;;;;;;;;;5042972;28;20075;-82
2023/12/07 10:26:44;;;;;;;3.17;0.68;;;;;;;;;;5038958;28;20029;-82
2023/12/07 10:29:10;;;;;;;5.70;1.40;;;;;;;;;;5041382;28;20029;-82
2023/12/07 10:31:37;;;;;;;1.73;1.13;;;;;;;;;;5054815;28;20025;-82
2023/12/07 10:34:04;;;;;;;2.35;0.80;;;;;;;;;;5037408;28;20026;-82
2023/12/07 10:36:30;;;;;;;5.22;2.08;;;;;;;;;;5053629;28;20029;-82
2023/12/07 10:38:56;;;;;;;2.58;1.50;;;;;;;;;;5059545;28;20413;-82
2023/12/07 10:41:23;;;;;;;8.93;1.48;;;;;;;;;;5036509;28;20463;-83
2023/12/07 10:43:52;;;;;;;1.15;0.63;;;;;;;;;;5031448;28;20044;-83
2023/12/07 10:46:20;;;;;;;4.90;1.70;;;;;;;;;;5044032;28;20036;-82
2023/12/07 10:48:49;;;;;;;0.80;0.55;;;;;;;;;;5034824;28;20033;-82
2023/12/07 10:51:22;;;;;;;0.40;0.20;;;;;;;;;;5035250;28;20037;-82
2023/12/07 10:53:49;;;;;;;1.95;0.47;;;;;;;;;;5031945;28;20026;-82
2023/12/07 10:56:17;;;;;;;5.43;0.60;;;;;;;;;;5038758;28;20487;-83
2023/12/07 10:58:44;;;;;;;1.13;0.32;;;;;;;;;;5040647;28;20071;-82
2023/12/07 11:01:11;;;;;;;0.47;0.22;;;;;;;;;;5052937;28;20469;-82
2023/12/07 11:03:40;;;;;;;1.60;1.38;;;;;;;;;;5020515;28;20466;-83
2023/12/07 11:06:06;;;;;;;2.42;1.10;;;;;;;;;;5034865;28;20116;-82
2023/12/07 11:08:36;;;;;;;2.38;1.38;;;;;;;;;;5035291;28;20049;-82
2023/12/07 11:11:11;;;;;;;1.25;0.30;;;;;;;;;;5024077;28;20394;-83
2023/12/07 11:13:38;;;;;;;0.50;0.50;;;;;;;;;;5031155;28;20030;-83
2023/12/07 11:16:04;;;;;;;1.45;1.15;;;;;;;;;;5054164;28;20021;-83
2023/12/07 11:18:30;;;;;;;1.55;0.55;;;;;;;;;;5027100;28;20087;-83
2023/12/07 11:20:56;;;;;;;2.13;1.50;;;;;;;;;;5018236;28;20032;-82
2023/12/07 11:23:23;;;;;;;4.20;1.88;;;;;;;;;;5053789;28;20458;-82
2023/12/07 11:25:50;;;;;;;5.38;1.42;;;;;;;;;;5044746;28;20053;-82
2023/12/07 11:28:16;;;;;;;6.63;1.77;;;;;;;;;;5047165;28;20041;-83
2023/12/07 11:30:44;;;;;;;3.08;1.50;;;;;;;;;;5018201;28;20032;-82
2023/12/07 11:33:12;;;;;;;4.78;1.73;;;;;;;;;;5031725;28;20033;-82
2023/12/07 11:35:58;;;;;;;0.65;0.40;;;;;;;;;;5052597;28;20028;-82
2023/12/07 11:38:24;;;;;;;3.63;0.50;;;;;;;;;;5011174;28;20049;-82
2023/12/07 11:40:50;;;;;;;0.90;0.40;;;;;;;;;;5035803;28;20037;-82
2023/12/07 11:43:38;;;;;;;1.08;0.30;;;;;;;;;;5033416;28;20044;-82
2023/12/07 11:46:04;;;;;;;3.47;0.80;;;;;;;;;;5046235;28;20408;-82
2023/12/07 11:48:30;;;;;;;1.40;0.80;;;;;;;;;;5050924;28;20033;-82
2023/12/07 11:50:59;;;;;;;1.45;0.73;;;;;;;;;;5020802;28;20140;-83
2023/12/07 11:53:26;;;;;;;2.47;0.77;;;;;;;;;;5034467;28;20127;-82
2023/12/07 11:55:52;;;;;;;0.43;0.30;;;;;;;;;;5028955;28;20022;-83
2023/12/07 11:58:19;;;;;;;4.05;2.83;;;;;;;;;;5040331;28;20045;-83
2023/12/07 12:00:48;;;;;;;5.15;2.30;;;;;;;;;;5038437;28;20025;-83
2023/12/07 12:03:15;;;;;;;3.15;1.55;;;;;;;;;;5039337;28;20052;-83
2023/12/07 12:05:43;;;;;;;2.88;0.65;;;;;;;;;;5021803;28;20175;-82
2023/12/07 12:08:10;;;;;;;4.57;0.90;;;;;;;;;;5050077;28;19928;-83
2023/12/07 12:10:36;;;;;;;5.20;0.90;;;;;;;;;;5027160;28;20037;-82
2023/12/07 12:13:03;;;;;;;0.85;0.47;;;;;;;;;;5015556;28;20038;-82
2023/12/07 12:15:29;;;;;;;2.55;1.38;;;;;;;;;;5042993;28;20100;-83
2023/12/07 12:18:01;;;;;;;2.60;0.50;;;;;;;;;;5035535;28;20071;-82
2023/12/07 12:20:27;;;;;;;2.80;0.77;;;;;;;;;;5039501;28;20525;-82
2023/12/07 12:22:54;;;;;;;1.00;0.55;;;;;;;;;;5037628;28;20112;-82
2023/12/07 12:25:30;;;;;;;4.32;0.82;;;;;;;;;;5015366;28;20029;-82
2023/12/07 12:27:56;;;;;;;3.40;0.57;;;;;;;;;;5037700;28;20422;-82
2023/12/07 12:30:23;;;;;;;0.20;0.17;;;;;;;;;;5042267;28;20363;-83
2023/12/07 12:32:49;;;;;;;0.55;0.20;;;;;;;;;;5034506;28;20367;-82
2023/12/07 12:35:15;;;;;;;0.03;0.03;;;;;;;;;;5049417;28;20044;-83
2023/12/07 12:37:44;;;;;;;0.20;0.17;;;;;;;;;;5026300;28;20049;-82
2023/12/07 12:40:20;;;;;;;0.25;0.15;;;;;;;;;;5030716;28;20037;-83
2023/12/07 12:42:47;;;;;;;0.63;0.30;;;;;;;;;;5016476;28;20044;-83
2023/12/07 12:45:14;;;;;;;0.13;0.13;;;;;;;;;;5033359;28;20029;-83
2023/12/07 12:47:41;;;;;;;0.28;0.20;;;;;;;;;;5020092;28;20041;-83
2023/12/07 12:50:07;;;;;;;0.35;0.10;;;;;;;;;;5029592;28;20051;-83
2023/12/07 12:52:34;;;;;;;2.08;1.27;;;;;;;;;;5030784;28;20030;-83
2023/12/07 12:55:00;;;;;;;2.28;1.20;;;;;;;;;;5045659;28;20037;-83
2023/12/07 12:57:26;;;;;;;2.90;1.15;;;;;;;;;;5028891;28;20036;-83
2023/12/07 12:59:52;;;;;;;1.63;0.63;;;;;;;;;;5024543;28;20021;-83
2023/12/07 13:02:19;;;;;;;2.10;0.70;;;;;;;;;;5053717;28;20454;-83
2023/12/07 13:04:45;;;;;;;12.10;2.80;;;;;;;;;;5035329;28;20032;-83
2023/12/07 13:07:14;;;;;;;5.35;1.52;;;;;;;;;;5021399;28;20502;-82
2023/12/07 13:09:43;;;;;;;5.13;1.05;;;;;;;;;;5044574;28;20471;-82
2023/12/07 13:12:09;;;;;;;3.72;1.40;;;;;;;;;;5036065;28;20459;-82
2023/12/07 13:14:37;;;;;;;0.82;0.47;;;;;;;;;;5036809;28;20025;-82
2023/12/07 13:17:04;;;;;;;1.35;0.85;;;;;;;;;;5045358;28;20029;-82
2023/12/07 13:19:30;;;;;;;1.73;0.70;;;;;;;;;;5037571;28;20417;-82
2023/12/07 13:21:56;;;;;;;3.72;0.80;;;;;;;;;;5034504;28;20116;-82
2023/12/07 13:24:22;;;;;;;0.43;0.08;;;;;;;;;;5019635;28;20049;-83
2023/12/07 13:26:48;;;;;;;0.35;0.20;;;;;;;;;;5027074;28;20128;-83
2023/12/07 13:29:14;;;;;;;0.30;0.20;;;;;;;;;;5046369;28;20070;-83
2023/12/07 13:31:40;;;;;;;0.00;0.00;;;;;;;;;;5038494;28;20375;-83
2023/12/07 13:34:06;;;;;;;9.07;0.52;;;;;;;;;;5044347;28;20497;-83
2023/12/07 13:36:33;;;;;;;5.43;1.40;;;;;;;;;;5042541;28;20034;-83
2023/12/07 13:39:02;;;;;;;2.95;0.60;;;;;;;;;;5049688;28;20058;-83
2023/12/07 13:41:28;;;;;;;0.55;0.43;;;;;;;;;;5032855;28;20056;-83
2023/12/07 13:43:54;;;;;;;2.92;0.93;;;;;;;;;;5071075;28;20374;-83
2023/12/07 13:46:20;;;;;;;5.00;2.28;;;;;;;;;;5025806;28;20438;-83
2023/12/07 13:48:47;;;;;;;7.13;1.17;;;;;;;;;;5036864;28;20033;-83
2023/12/07 13:51:13;;;;;;;6.13;2.13;;;;;;;;;;5022333;28;20025;-83
2023/12/07 13:53:39;;;;;;;3.20;1.40;;;;;;;;;;5054939;28;20033;-83
2023/12/07 13:56:07;;;;;;;4.82;1.60;;;;;;;;;;5018830;28;20040;-83
2023/12/07 13:58:35;;;;;;;3.45;1.55;;;;;;;;;;5034760;28;20041;-82
2023/12/07 14:01:01;;;;;;;3.28;1.00;;;;;;;;;;5017044;28;20040;-82
2023/12/07 14:03:27;;;;;;;2.88;0.85;;;;;;;;;;5026760;28;20034;-82
2023/12/07 14:05:53;;;;;;;3.58;1.27;;;;;;;;;;5041544;28;20017;-82
2023/12/07 14:08:19;;;;;;;5.22;1.58;;;;;;;;;;5048051;28;20076;-83
2023/12/07 14:10:45;;;;;;;0.63;0.30;;;;;;;;;;5048573;28;20347;-82
2023/12/07 14:13:11;;;;;;;0.52;0.22;;;;;;;;;;5044578;28;20034;-82
2023/12/07 14:15:37;;;;;;;1.20;0.47;;;;;;;;;;5049542;28;20025;-82
2023/12/07 14:18:03;;;;;;;0.63;0.45;;;;;;;;;;5042496;28;20067;-82
2023/12/07 14:20:30;;;;;;;2.97;1.17;;;;;;;;;;5046154;28;20040;-82
2023/12/07 14:22:56;;;;;;;5.88;1.77;;;;;;;;;;5022888;28;20029;-82
2023/12/07 14:25:23;;;;;;;6.68;1.58;;;;;;;;;;5040831;28;20360;-82
2023/12/07 14:27:49;;;;;;;1.60;1.00;;;;;;;;;;5053205;28;20029;-82
2023/12/07 14:30:16;;;;;;;4.68;1.42;;;;;;;;;;5036214;28;20115;-82
2023/12/07 14:32:48;;;;;;;5.28;1.73;;;;;;;;;;5043291;28;20069;-82
2023/12/07 14:35:14;;;;;;;4.55;1.75;;;;;;;;;;5032101;28;20025;-82
2023/12/07 14:37:41;;;;;;;3.67;1.42;;;;;;;;;;5051323;28;20060;-82
2023/12/07 14:40:08;;;;;;;3.15;1.73;;;;;;;;;;5029082;28;20036;-82
2023/12/07 14:42:34;;;;;;;9.70;2.10;;;;;;;;;;5053816;28;20035;-82
2023/12/07 14:45:00;;;;;;;2.72;1.45;;;;;;;;;;5032601;28;20036;-82
2023/12/07 14:47:26;;;;;;;1.83;0.82;;;;;;;;;;5036425;28;20033;-82
2023/12/07 14:49:52;;;;;;;3.53;0.95;;;;;;;;;;5045228;28;20025;-82
2023/12/07 14:52:18;;;;;;;1.35;0.85;;;;;;;;;;5035111;28;20141;-82
2023/12/07 14:54:44;;;;;;;0.40;0.30;;;;;;;;;;5052300;28;20028;-82
2023/12/07 14:57:10;;;;;;;1.83;1.13;;;;;;;;;;5030239;28;20037;-82
2023/12/07 14:59:36;;;;;;;2.33;0.65;;;;;;;;;;5037291;28;20033;-82
2023/12/07 15:02:02;;;;;;;0.90;0.70;;;;;;;;;;5044525;28;20029;-82
2023/12/07 15:04:31;;;;;;;4.40;2.25;;;;;;;;;;5026581;28;20035;-82
2023/12/07 15:06:57;;;;;;;6.55;1.85;;;;;;;;;;5054173;28;20025;-82
2023/12/07 15:09:23;;;;;;;3.92;1.20;;;;;;;;;;5043360;28;20041;-82
2023/12/07 15:11:49;;;;;;;5.50;1.45;;;;;;;;;;5018167;28;20376;-82
2023/12/07 15:14:15;;;;;;;6.10;1.63;;;;;;;;;;5053710;28;20037;-81
2023/12/07 15:16:41;;;;;;;6.18;1.50;;;;;;;;;;5054429;28;20032;-82
2023/12/07 15:19:07;;;;;;;1.08;0.93;;;;;;;;;;5040215;28;20391;-82
2023/12/07 15:21:34;;;;;;;11.93;1.10;;;;;;;;;;5035330;28;20068;-82
2023/12/07 15:24:00;;;;;;;5.72;2.00;;;;;;;;;;5023776;28;20360;-82
2023/12/07 15:26:26;;;;;;;5.47;1.58;;;;;;;;;;5053878;28;20040;-82
2023/12/07 15:28:52;;;;;;;2.55;1.50;;;;;;;;;;5037207;28;20037;-82
2023/12/07 15:31:33;;;;;;;1.05;0.80;;;;;;;;;;5051210;28;20064;-86
2023/12/07 15:33:59;;;;;;;1.13;0.90;;;;;;;;;;5038663;28;20038;-81
2023/12/07 15:36:25;;;;;;;3.42;1.08;;;;;;;;;;5026226;28;20036;-82
2023/12/07 15:38:52;;;;;;;4.93;1.20;;;;;;;;;;5023776;28;20041;-82
2023/12/07 15:41:18;;;;;;;0.52;0.30;;;;;;;;;;5038907;28;20463;-82
2023/12/07 15:43:44;;;;;;;1.77;0.73;;;;;;;;;;5048680;28;20102;-82
2023/12/07 15:46:10;;;;;;;1.42;0.77;;;;;;;;;;5015476;28;20028;-81
2023/12/07 15:48:36;;;;;;;1.35;0.70;;;;;;;;;;5045112;28;20048;-82
2023/12/07 15:51:02;;;;;;;0.95;0.40;;;;;;;;;;5051650;28;20044;-81
2023/12/07 15:53:29;;;;;;;4.95;1.52;;;;;;;;;;5032732;28;20478;-81